createdAt,value
2023-01-17T00:47:37.302Z,100841.84
2023-01-17T00:50:27.725Z,100838.00
2023-01-17T00:53:16.279Z,100845.16
2023-01-17T00:56:05.282Z,100833.28
2023-01-17T00:58:53.989Z,100836.94
2023-01-17T01:01:43.277Z,100846.66
2023-01-17T01:04:31.635Z,100849.09
2023-01-17T01:07:20.566Z,100842.78
2023-01-17T01:10:09.220Z,100840.47
2023-01-17T01:12:57.735Z,100840.81
2023-01-17T01:15:45.846Z,100841.44
2023-01-17T01:18:34.901Z,100832.44
2023-01-17T01:21:24.399Z,100836.00
2023-01-17T01:24:13.562Z,100830.16
2023-01-17T01:27:02.106Z,100837.56
2023-01-17T01:29:50.964Z,100824.78
2023-01-17T01:32:39.461Z,100826.56
2023-01-17T01:35:10.417Z,100842.50
2023-01-17T01:37:40.736Z,100845.88
2023-01-17T01:40:13.831Z,100830.16
2023-01-17T01:43:01.399Z,100828.72
2023-01-17T01:45:33.578Z,100829.06
2023-01-17T01:48:07.759Z,100820.38
2023-01-17T01:50:38.830Z,100821.00
2023-01-17T01:53:09.483Z,100827.00
2023-01-17T01:55:42.182Z,100812.47
2023-01-17T01:58:18.125Z,100812.88
2023-01-17T02:00:48.969Z,100813.91
2023-01-17T02:03:26.925Z,100810.75
2023-01-17T02:06:02.534Z,100816.09
2023-01-17T02:08:34.179Z,100815.78
2023-01-17T02:11:05.503Z,100822.09
2023-01-17T02:13:35.879Z,100827.50
2023-01-17T02:16:21.733Z,100820.50
2023-01-17T02:19:07.131Z,100826.38
2023-01-17T02:21:57.924Z,100829.22
2023-01-17T02:24:34.164Z,100823.53
2023-01-17T02:27:10.831Z,100831.31
2023-01-17T02:30:12.395Z,100834.88
2023-01-17T02:33:06.758Z,100839.25
2023-01-17T02:35:43.663Z,100845.94
2023-01-17T02:38:22.599Z,100849.81
2023-01-17T02:41:02.987Z,100857.56
2023-01-17T02:43:35.499Z,100853.69
2023-01-17T02:46:06.172Z,100860.06
2023-01-17T02:48:39.117Z,100855.59
2023-01-17T02:51:18.151Z,100838.84
2023-01-17T02:54:19.624Z,100846.03
2023-01-17T02:57:08.063Z,100843.75
2023-01-17T03:00:15.338Z,100835.69
2023-01-17T03:03:09.758Z,100846.34
2023-01-17T03:05:58.914Z,100847.00
2023-01-17T03:08:30.138Z,100840.09
2023-01-17T03:11:01.522Z,100836.72
2023-01-17T03:13:32.208Z,100836.22
2023-01-17T03:16:04.829Z,100842.59
2023-01-17T03:18:35.762Z,100830.34
2023-01-17T03:21:06.595Z,100828.13
2023-01-17T03:23:36.836Z,100819.34
2023-01-17T03:26:07.906Z,100813.47
2023-01-17T03:28:38.253Z,100805.50
2023-01-17T03:31:09.093Z,100807.78
2023-01-17T03:33:39.335Z,100809.28
2023-01-17T03:36:10.332Z,100801.84
2023-01-17T03:38:40.727Z,100814.72
2023-01-17T03:41:11.455Z,100802.69
2023-01-17T03:43:54.019Z,100795.91
2023-01-17T03:46:27.397Z,100796.50
2023-01-17T03:48:57.661Z,100788.75
2023-01-17T03:51:29.366Z,100786.47
2023-01-17T03:54:00.129Z,100775.06
2023-01-17T03:56:30.996Z,100777.06
2023-01-17T03:59:01.356Z,100768.06
2023-01-17T04:01:32.217Z,100764.09
2023-01-17T04:04:02.615Z,100768.28
2023-01-17T04:06:33.316Z,100767.00
2023-01-17T04:09:03.622Z,100755.69
2023-01-17T04:11:34.516Z,100760.13
2023-01-17T04:14:04.748Z,100765.88
2023-01-17T04:16:35.499Z,100759.69
2023-01-17T04:19:05.749Z,100760.13
2023-01-17T04:21:36.432Z,100764.41
2023-01-17T04:24:07.153Z,100756.13
2023-01-17T04:26:38.174Z,100752.06
2023-01-17T04:29:08.382Z,100751.09
2023-01-17T04:31:39.238Z,100749.44
2023-01-17T04:34:09.514Z,100746.38
2023-01-17T04:36:40.316Z,100745.25
2023-01-17T04:39:10.575Z,100742.22
2023-01-17T04:41:41.487Z,100744.19
2023-01-17T04:44:11.821Z,100742.41
2023-01-17T04:46:42.793Z,100743.03
2023-01-17T04:49:13.083Z,100742.53
2023-01-17T04:51:44.198Z,100748.19
2023-01-17T04:54:14.580Z,100751.09
2023-01-17T04:56:46.102Z,100736.06
2023-01-17T04:59:16.346Z,100736.47
2023-01-17T05:01:49.612Z,100745.03
2023-01-17T05:04:20.141Z,100739.69
2023-01-17T05:06:50.872Z,100735.31
2023-01-17T05:09:21.711Z,100730.28
2023-01-17T05:11:52.532Z,100726.03
2023-01-17T05:14:23.127Z,100726.75
2023-01-17T05:16:57.645Z,100728.09
2023-01-17T05:19:28.903Z,100727.56
2023-01-17T05:22:05.008Z,100724.97
2023-01-17T05:24:35.309Z,100738.56
2023-01-17T05:27:06.017Z,100722.22
2023-01-17T05:29:36.416Z,100722.22
2023-01-17T05:32:07.976Z,100720.59
2023-01-17T05:34:38.237Z,100718.44
2023-01-17T05:37:08.946Z,100718.59
2023-01-17T05:39:39.163Z,100713.63
2023-01-17T05:42:10.224Z,100699.69
2023-01-17T05:44:40.468Z,100704.53
2023-01-17T05:47:11.775Z,100699.69
2023-01-17T05:49:43.375Z,100699.09
2023-01-17T05:52:15.157Z,100692.28
2023-01-17T05:54:45.456Z,100698.66
2023-01-17T05:57:17.108Z,100691.06
2023-01-17T05:59:47.329Z,100676.25
2023-01-17T06:02:18.089Z,100688.84
2023-01-17T06:04:48.504Z,100695.09
2023-01-17T06:07:19.295Z,100684.72
2023-01-17T06:09:49.575Z,100685.59
2023-01-17T06:12:22.028Z,100678.94
2023-01-17T06:14:52.400Z,100680.19
2023-01-17T06:17:23.116Z,100682.72
2023-01-17T06:19:53.417Z,100678.44
2023-01-17T06:22:24.452Z,100685.19
2023-01-17T06:24:54.711Z,100668.13
2023-01-17T06:27:25.718Z,100662.75
2023-01-17T06:29:55.999Z,100653.38
2023-01-17T06:32:26.887Z,100664.88
2023-01-17T06:34:57.245Z,100669.78
2023-01-17T06:37:28.013Z,100667.97
2023-01-17T06:39:58.277Z,100645.97
2023-01-17T06:42:29.149Z,100668.22
2023-01-17T06:44:59.453Z,100669.44
2023-01-17T06:47:30.504Z,100670.41
2023-01-17T06:50:02.448Z,100668.88
2023-01-17T06:52:34.060Z,100671.31
2023-01-17T06:55:04.891Z,100673.97
2023-01-17T06:57:35.845Z,100673.31
2023-01-17T07:00:07.231Z,100679.50
2023-01-17T07:02:38.128Z,100669.06
2023-01-17T07:05:09.704Z,100671.53
2023-01-17T07:07:40.337Z,100661.84
2023-01-17T07:10:11.541Z,100669.97
2023-01-17T07:12:42.348Z,100659.69
2023-01-17T07:15:13.143Z,100670.47
2023-01-17T07:17:43.894Z,100657.34
2023-01-17T07:20:14.806Z,100663.50
2023-01-17T07:22:48.523Z,100654.97
2023-01-17T07:25:19.042Z,100671.50
2023-01-17T07:27:50.214Z,100667.03
2023-01-17T07:30:20.708Z,100668.63
2023-01-17T07:32:55.785Z,100675.09
2023-01-17T07:35:27.939Z,100674.06
2023-01-17T07:37:58.658Z,100669.38
2023-01-17T07:40:28.940Z,100668.47
2023-01-17T07:43:15.254Z,100674.28
2023-01-17T07:45:46.792Z,100669.81
2023-01-17T07:48:18.145Z,100676.59
2023-01-17T07:50:57.343Z,100676.28
2023-01-17T07:53:29.993Z,100681.84
2023-01-17T07:56:08.622Z,100694.75
2023-01-17T07:58:39.571Z,100691.38
2023-01-17T08:01:16.762Z,100684.03
2023-01-17T08:03:47.848Z,100692.13
2023-01-17T08:06:23.449Z,100691.38
2023-01-17T08:09:00.147Z,100685.72
2023-01-17T08:11:30.851Z,100691.84
2023-01-17T08:14:01.638Z,100688.88
2023-01-17T08:16:32.010Z,100697.41
2023-01-17T08:19:02.848Z,100693.25
2023-01-17T08:21:33.064Z,100697.16
2023-01-17T08:24:03.839Z,100692.59
2023-01-17T08:26:34.084Z,100692.00
2023-01-17T08:29:04.992Z,100692.50
2023-01-17T08:31:36.849Z,100695.16
2023-01-17T08:34:07.689Z,100697.03
2023-01-17T08:36:37.977Z,100698.59
2023-01-17T08:39:08.730Z,100700.81
2023-01-17T08:41:38.937Z,100701.03
2023-01-17T08:44:09.687Z,100709.84
2023-01-17T08:46:40.898Z,100713.91
2023-01-17T08:49:13.536Z,100713.00
2023-01-17T08:51:43.874Z,100723.94
2023-01-17T08:54:16.395Z,100733.34
2023-01-17T08:56:48.545Z,100735.22
2023-01-17T08:59:19.516Z,100732.38
2023-01-17T09:01:49.962Z,100724.81
2023-01-17T09:04:21.069Z,100736.66
2023-01-17T09:06:51.662Z,100744.00
2023-01-17T09:09:22.436Z,100747.34
2023-01-17T09:11:52.650Z,100753.63
2023-01-17T09:14:23.523Z,100754.47
2023-01-17T09:16:53.786Z,100753.47
2023-01-17T09:19:24.667Z,100750.78
2023-01-17T09:21:54.943Z,100759.94
2023-01-17T09:24:25.690Z,100758.94
2023-01-17T09:26:55.897Z,100759.47
2023-01-17T09:29:26.765Z,100765.22
2023-01-17T09:31:57.052Z,100767.91
2023-01-17T09:34:28.239Z,100775.13
2023-01-17T09:36:58.789Z,100773.72
2023-01-17T09:39:29.575Z,100774.13
2023-01-17T09:42:37.356Z,100787.16
2023-01-17T09:45:17.951Z,100792.13
2023-01-17T09:47:54.062Z,100794.16
2023-01-17T09:50:40.173Z,100794.72
2023-01-17T09:53:23.834Z,100806.38
2023-01-17T09:56:25.036Z,100803.78
2023-01-17T09:59:32.836Z,100809.50
2023-01-17T10:02:26.467Z,100808.03
2023-01-17T10:04:59.960Z,100821.69
2023-01-17T10:08:07.560Z,100824.94
2023-01-17T10:11:00.623Z,100821.66
2023-01-17T10:13:49.693Z,100835.50
2023-01-17T10:16:49.408Z,100836.84
2023-01-17T10:19:41.262Z,100839.31
2023-01-17T10:22:25.586Z,100838.47
2023-01-17T10:24:59.234Z,100843.25
2023-01-17T10:27:52.984Z,100846.00
2023-01-17T10:30:31.666Z,100849.03
2023-01-17T10:33:12.287Z,100847.97
2023-01-17T10:35:52.604Z,100848.28
2023-01-17T10:38:35.506Z,100860.03
2023-01-17T10:41:38.657Z,100858.09
2023-01-17T10:44:40.794Z,100858.19
2023-01-17T10:47:22.797Z,100873.56
2023-01-17T10:49:55.807Z,100874.59
2023-01-17T10:52:31.144Z,100880.91
2023-01-17T10:55:18.117Z,100890.19
2023-01-17T10:57:50.544Z,100895.59
2023-01-17T11:00:32.984Z,100895.84
2023-01-17T11:03:04.259Z,100902.84
2023-01-17T11:05:35.945Z,100907.06
2023-01-17T11:08:11.902Z,100914.91
2023-01-17T11:10:42.169Z,100905.16
2023-01-17T11:13:32.498Z,100906.25
2023-01-17T11:16:11.092Z,100911.00
2023-01-17T11:18:42.078Z,100909.06
2023-01-17T11:21:26.886Z,100912.13
2023-01-17T11:23:59.002Z,100914.16
2023-01-17T11:26:34.346Z,100923.25
2023-01-17T11:29:30.794Z,100915.44
2023-01-17T11:32:31.040Z,100916.19
2023-01-17T11:35:17.312Z,100920.78
2023-01-17T11:38:16.201Z,100921.16
2023-01-17T11:40:48.694Z,100918.38
2023-01-17T11:43:26.818Z,100919.56
2023-01-17T11:46:19.009Z,100930.03
2023-01-17T11:49:00.988Z,100927.50
2023-01-17T11:51:34.612Z,100934.59
2023-01-17T11:54:21.981Z,100943.66
2023-01-17T11:56:59.579Z,100943.88
2023-01-17T11:59:35.935Z,100936.41
2023-01-17T12:02:18.631Z,100941.06
2023-01-17T12:05:26.445Z,100941.03
2023-01-17T12:08:31.996Z,100947.03
2023-01-17T12:11:37.175Z,100943.09
2023-01-17T12:14:23.180Z,100946.47
2023-01-17T12:17:23.872Z,100944.13
2023-01-17T12:20:07.134Z,100951.81
2023-01-17T12:22:37.139Z,100951.72
2023-01-17T12:25:08.109Z,100951.69
2023-01-17T12:28:38.943Z,100955.03
2023-01-17T12:31:25.833Z,100955.44
2023-01-17T12:34:03.677Z,100960.91
2023-01-17T12:37:09.699Z,100958.97
2023-01-17T12:39:45.436Z,100964.16
2023-01-17T12:42:25.657Z,100961.00
2023-01-17T12:44:55.873Z,100954.34
2023-01-17T12:47:26.890Z,100953.56
2023-01-17T12:49:57.549Z,100943.22
2023-01-17T12:52:40.419Z,100944.25
2023-01-17T12:55:21.975Z,100950.78
2023-01-17T12:58:04.225Z,100949.22
2023-01-17T13:00:39.896Z,100940.97
2023-01-17T13:03:25.913Z,100945.97
2023-01-17T13:05:59.087Z,100951.72
2023-01-17T13:08:32.891Z,100943.88
2023-01-17T13:11:09.119Z,100948.88
2023-01-17T13:13:42.509Z,100950.69
2023-01-17T13:16:47.844Z,100960.13
2023-01-17T13:19:29.711Z,100956.84
2023-01-17T13:22:02.406Z,100952.91
2023-01-17T13:24:37.836Z,100960.75
2023-01-17T13:27:18.746Z,100963.63
2023-01-17T13:30:06.193Z,100965.00
2023-01-17T13:32:53.632Z,100959.31
2023-01-17T13:35:26.680Z,100954.03
2023-01-17T13:38:15.089Z,100961.81
2023-01-17T13:40:56.458Z,100969.00
2023-01-17T13:43:37.641Z,100957.25
2023-01-17T13:46:08.852Z,100955.34
2023-01-17T13:48:41.873Z,100951.84
2023-01-17T13:51:13.059Z,100956.50
2023-01-17T13:53:43.025Z,100952.00
2023-01-17T13:56:30.555Z,100950.44
2023-01-17T13:59:03.942Z,100958.69
2023-01-17T14:01:39.468Z,100961.47
2023-01-17T14:04:11.404Z,100957.41
2023-01-17T14:06:50.142Z,100954.72
2023-01-17T14:09:30.262Z,100970.94
2023-01-17T14:12:08.718Z,100959.63
2023-01-17T14:14:42.727Z,100951.16
2023-01-17T14:17:27.811Z,100959.97
2023-01-17T14:20:20.601Z,100960.56
2023-01-17T14:22:57.834Z,100959.28
2023-01-17T14:25:39.635Z,100954.16
2023-01-17T14:28:33.536Z,100949.72
2023-01-17T14:31:11.403Z,100941.91
2023-01-17T14:33:43.127Z,100942.84
2023-01-17T14:36:34.507Z,100946.72
2023-01-17T14:39:04.638Z,100939.53
2023-01-17T14:41:35.090Z,100926.50
2023-01-17T14:44:05.805Z,100933.69
2023-01-17T14:46:37.183Z,100935.47
2023-01-17T14:49:21.341Z,100924.56
2023-01-17T14:52:07.413Z,100927.19
2023-01-17T14:54:37.972Z,100926.28
2023-01-17T14:57:29.790Z,100907.03
2023-01-17T15:00:19.632Z,100910.19
2023-01-17T15:02:51.942Z,100913.28
2023-01-17T15:05:24.826Z,100903.53
2023-01-17T15:07:58.126Z,100894.56
2023-01-17T15:10:34.616Z,100907.00
2023-01-17T15:13:11.039Z,100899.00
2023-01-17T15:15:43.126Z,100889.00
2023-01-17T15:18:16.668Z,100890.75
2023-01-17T15:20:52.099Z,100894.09
2023-01-17T15:23:23.406Z,100889.25
2023-01-17T15:25:55.252Z,100878.97
2023-01-17T15:28:26.067Z,100878.72
2023-01-17T15:31:12.109Z,100872.94
2023-01-17T15:33:46.687Z,100874.25
2023-01-17T15:36:28.983Z,100864.41
2023-01-17T15:39:01.336Z,100857.56
2023-01-17T15:41:38.392Z,100849.44
2023-01-17T15:44:22.353Z,100849.16
2023-01-17T15:46:52.598Z,100847.31
2023-01-17T15:49:25.447Z,100843.56
2023-01-17T15:52:15.753Z,100839.47
2023-01-17T15:55:00.784Z,100833.63
2023-01-17T15:57:36.533Z,100822.97
2023-01-17T16:00:22.088Z,100825.44
2023-01-17T16:02:58.227Z,100829.00
2023-01-17T16:05:31.933Z,100832.16
2023-01-17T16:08:05.446Z,100801.13
2023-01-17T16:10:39.030Z,100819.91
2023-01-17T16:13:11.279Z,100817.00
2023-01-17T16:15:43.085Z,100818.03
2023-01-17T16:18:26.829Z,100810.44
2023-01-17T16:21:27.644Z,100803.56
2023-01-17T16:23:58.604Z,100792.19
2023-01-17T16:26:30.278Z,100785.84
2023-01-17T16:29:00.614Z,100801.34
2023-01-17T16:31:31.288Z,100798.97
2023-01-17T16:34:01.382Z,100803.13
2023-01-17T16:36:31.906Z,100788.78
2023-01-17T16:39:01.932Z,100783.59
2023-01-17T16:41:32.651Z,100776.66
2023-01-17T16:44:06.542Z,100777.63
2023-01-17T16:46:39.657Z,100780.91
2023-01-17T16:49:09.865Z,100794.22
2023-01-17T16:51:40.417Z,100787.09
2023-01-17T16:54:10.522Z,100775.50
2023-01-17T16:56:41.065Z,100776.13
2023-01-17T16:59:11.143Z,100760.72
2023-01-17T17:01:42.015Z,100773.63
2023-01-17T17:04:14.286Z,100766.72
2023-01-17T17:06:44.749Z,100760.50
2023-01-17T17:09:14.770Z,100744.53
2023-01-17T17:11:45.053Z,100759.97
2023-01-17T17:14:15.988Z,100760.59
2023-01-17T17:16:46.713Z,100756.53
2023-01-17T17:19:17.200Z,100748.38
2023-01-17T17:21:47.631Z,100748.44
2023-01-17T17:24:18.939Z,100739.28
2023-01-17T17:26:49.086Z,100747.69
2023-01-17T17:29:19.661Z,100738.34
2023-01-17T17:31:49.742Z,100735.47
2023-01-17T17:34:20.375Z,100734.50
2023-01-17T17:36:50.405Z,100729.22
2023-01-17T17:39:21.121Z,100724.97
2023-01-17T17:41:51.150Z,100727.25
2023-01-17T17:44:21.633Z,100724.16
2023-01-17T17:46:52.622Z,100722.94
2023-01-17T17:49:23.857Z,100722.06
2023-01-17T17:51:53.891Z,100707.25
2023-01-17T17:54:25.789Z,100702.88
2023-01-17T17:56:57.332Z,100711.38
2023-01-17T17:59:27.352Z,100696.88
2023-01-17T18:01:58.189Z,100705.53
2023-01-17T18:04:28.677Z,100699.75
2023-01-17T18:06:59.852Z,100704.56
2023-01-17T18:09:30.210Z,100687.47
2023-01-17T18:12:00.816Z,100689.16
2023-01-17T18:14:31.324Z,100700.06
2023-01-17T18:17:01.969Z,100698.88
2023-01-17T18:19:38.165Z,100703.72
2023-01-17T18:22:08.647Z,100714.53
2023-01-17T18:24:39.059Z,100708.41
2023-01-17T18:27:11.544Z,100713.06
2023-01-17T18:29:41.663Z,100719.75
2023-01-17T18:32:14.307Z,100711.41
2023-01-17T18:34:44.520Z,100709.66
2023-01-17T18:37:15.017Z,100704.94
2023-01-17T18:39:45.202Z,100722.72
2023-01-17T18:42:15.784Z,100721.78
2023-01-17T18:44:45.969Z,100722.25
2023-01-17T18:47:16.572Z,100719.84
2023-01-17T18:49:46.680Z,100720.81
2023-01-17T18:52:18.740Z,100727.38
2023-01-17T18:54:49.026Z,100709.28
2023-01-17T18:57:19.574Z,100728.25
2023-01-17T18:59:49.654Z,100717.56
2023-01-17T19:02:21.079Z,100720.84
2023-01-17T19:04:52.163Z,100717.84
2023-01-17T19:07:23.095Z,100711.41
2023-01-17T19:09:53.115Z,100714.84
2023-01-17T19:12:23.855Z,100713.41
2023-01-17T19:14:53.945Z,100722.34
2023-01-17T19:17:24.402Z,100710.97
2023-01-17T19:19:56.977Z,100716.44
2023-01-17T19:22:27.644Z,100715.28
2023-01-17T19:24:57.715Z,100711.59
2023-01-17T19:27:28.328Z,100711.31
2023-01-17T19:29:58.367Z,100719.47
2023-01-17T19:32:28.826Z,100717.81
2023-01-17T19:34:58.770Z,100700.09
2023-01-17T19:37:29.732Z,100714.63
2023-01-17T19:40:00.101Z,100710.00
2023-01-17T19:42:30.902Z,100717.13
2023-01-17T19:45:01.228Z,100697.78
2023-01-17T19:47:32.436Z,100713.28
2023-01-17T19:50:02.743Z,100708.19
2023-01-17T19:52:33.209Z,100704.88
2023-01-17T19:55:03.959Z,100704.19
2023-01-17T19:57:38.028Z,100706.94
2023-01-17T20:00:11.188Z,100705.03
2023-01-17T20:02:42.361Z,100704.44
2023-01-17T20:05:12.487Z,100711.75
2023-01-17T20:07:42.961Z,100704.47
2023-01-17T20:10:13.448Z,100720.03
2023-01-17T20:12:46.468Z,100717.03
2023-01-17T20:15:17.037Z,100716.06
2023-01-17T20:17:47.710Z,100716.56
2023-01-17T20:20:18.968Z,100716.78
2023-01-17T20:22:49.738Z,100711.78
2023-01-17T20:25:19.867Z,100719.97
2023-01-17T20:27:50.017Z,100717.66
2023-01-17T20:30:20.923Z,100732.59
2023-01-17T20:32:51.784Z,100724.09
2023-01-17T20:35:22.369Z,100714.88
2023-01-17T20:37:56.033Z,100719.81
2023-01-17T20:40:26.755Z,100708.91
2023-01-17T20:42:56.838Z,100714.31
2023-01-17T20:45:26.831Z,100722.84
2023-01-17T20:47:57.682Z,100723.66
2023-01-17T20:50:28.550Z,100723.66
2023-01-17T20:52:59.017Z,100722.66
2023-01-17T20:55:29.067Z,100730.13
2023-01-17T20:58:00.661Z,100734.16
2023-01-17T21:00:30.708Z,100744.03
2023-01-17T21:03:01.196Z,100740.88
2023-01-17T21:05:31.304Z,100734.75
2023-01-17T21:08:05.469Z,100746.38
2023-01-17T21:10:37.494Z,100746.84
2023-01-17T21:13:09.309Z,100744.72
2023-01-17T21:15:45.611Z,100748.44
2023-01-17T21:18:18.638Z,100750.66
2023-01-17T21:20:50.447Z,100750.53
2023-01-17T21:23:21.310Z,100755.69
2023-01-17T21:25:55.813Z,100751.44
2023-01-17T21:28:30.472Z,100761.72
2023-01-17T21:31:27.381Z,100763.97
2023-01-17T21:33:59.224Z,100774.72
2023-01-17T21:36:33.664Z,100772.88
2023-01-17T21:39:07.267Z,100772.53
2023-01-17T21:41:40.659Z,100767.81
2023-01-17T21:44:17.084Z,100767.19
2023-01-17T21:46:48.070Z,100762.53
2023-01-17T21:49:18.676Z,100775.66
2023-01-17T21:51:54.776Z,100784.81
2023-01-17T21:54:44.480Z,100781.94
2023-01-17T21:57:36.112Z,100777.94
2023-01-17T22:00:09.301Z,100791.63
2023-01-17T22:02:42.457Z,100798.19
2023-01-17T22:05:13.081Z,100808.56
2023-01-17T22:08:13.233Z,100814.25
2023-01-17T22:10:48.102Z,100835.75
2023-01-17T22:13:19.839Z,100838.09
2023-01-17T22:16:00.038Z,100841.97
2023-01-17T22:18:31.000Z,100857.41
2023-01-17T22:21:07.317Z,100857.78
2023-01-17T22:23:41.980Z,100860.31
2023-01-17T22:26:13.153Z,100865.81
2023-01-17T22:28:43.752Z,100868.72
2023-01-17T22:31:15.767Z,100873.66
2023-01-17T22:33:48.655Z,100873.47
2023-01-17T22:36:28.279Z,100863.25
2023-01-17T22:39:01.993Z,100872.38
2023-01-17T22:41:35.094Z,100873.78
2023-01-17T22:44:09.120Z,100885.22
2023-01-17T22:46:40.423Z,100884.31
2023-01-17T22:49:14.471Z,100887.56
2023-01-17T22:51:48.807Z,100892.34
2023-01-17T22:54:20.760Z,100888.69
2023-01-17T22:56:53.513Z,100897.47
2023-01-17T22:59:23.831Z,100908.50
2023-01-17T23:01:55.544Z,100912.91
2023-01-17T23:04:25.681Z,100909.81
2023-01-17T23:06:56.443Z,100911.97
2023-01-17T23:09:26.868Z,100918.50
2023-01-17T23:11:57.514Z,100926.59
2023-01-17T23:14:56.396Z,100928.09
2023-01-17T23:17:46.532Z,100942.81
2023-01-17T23:20:17.019Z,100952.00
2023-01-17T23:22:47.531Z,100956.78
2023-01-17T23:25:18.793Z,100958.63
2023-01-17T23:28:07.390Z,100966.03
2023-01-17T23:30:38.458Z,100970.38
2023-01-17T23:33:11.781Z,100974.13
2023-01-17T23:35:44.218Z,100988.13
2023-01-17T23:38:34.836Z,100996.94
2023-01-17T23:41:26.475Z,100997.84
2023-01-17T23:44:00.396Z,101008.53
2023-01-17T23:46:38.246Z,101000.34
2023-01-17T23:49:09.834Z,101015.97
2023-01-17T23:51:41.408Z,101015.69
2023-01-17T23:54:12.874Z,101022.03
2023-01-17T23:56:43.708Z,101029.38
2023-01-17T23:59:13.976Z,101031.59
